createdAt,value
2023-03-02T00:01:38.189Z,34.80
2023-03-02T00:04:13.437Z,30.00
2023-03-02T00:06:46.245Z,35.90
2023-03-02T00:09:19.988Z,30.20
2023-03-02T00:11:53.343Z,30.70
2023-03-02T00:14:26.877Z,28.00
2023-03-02T00:35:42.048Z,28.40
2023-03-02T00:38:15.730Z,31.50
2023-03-02T00:40:49.340Z,37.00
2023-03-02T00:43:27.431Z,34.40
2023-03-02T00:46:00.570Z,34.60
2023-03-02T00:48:34.225Z,37.50
2023-03-02T00:51:07.691Z,44.50
2023-03-02T00:53:43.522Z,48.00
2023-03-02T00:56:17.572Z,45.40
2023-03-02T00:58:52.551Z,42.00
2023-03-02T01:01:25.514Z,41.20
2023-03-02T01:03:59.236Z,38.80
2023-03-02T01:06:32.535Z,37.70
2023-03-02T01:09:05.896Z,34.60
2023-03-02T01:11:44.632Z,36.20
2023-03-02T01:14:18.844Z,43.60
2023-03-02T01:16:51.595Z,46.20
2023-03-02T01:19:29.433Z,44.20
2023-03-02T01:22:02.517Z,40.60
2023-03-02T01:24:35.713Z,38.50
2023-03-02T01:27:09.189Z,34.20
2023-03-02T01:29:42.749Z,42.40
2023-03-02T01:32:16.707Z,34.50
2023-03-02T01:51:26.836Z,33.00
2023-03-02T01:54:03.654Z,33.60
2023-03-02T01:56:37.840Z,27.10
2023-03-02T01:59:11.775Z,29.90
2023-03-02T02:01:45.880Z,27.40
2023-03-02T02:04:25.399Z,34.30
2023-03-02T02:07:01.204Z,33.20
2023-03-02T02:09:38.786Z,34.30
2023-03-02T02:12:17.276Z,41.40
2023-03-02T02:14:50.023Z,36.50
2023-03-02T02:17:24.262Z,35.00
2023-03-02T02:20:08.271Z,36.30
2023-03-02T02:22:48.909Z,32.80
2023-03-02T02:25:27.941Z,37.60
2023-03-02T02:28:03.301Z,36.90
2023-03-02T02:30:36.386Z,35.70
2023-03-02T02:33:09.539Z,33.90
2023-03-02T02:53:34.655Z,39.60
2023-03-02T02:56:09.064Z,37.70
2023-03-02T02:58:46.142Z,40.20
2023-03-02T03:01:20.260Z,42.40
2023-03-02T03:03:55.429Z,40.20
2023-03-02T03:06:38.569Z,40.30
2023-03-02T03:09:13.334Z,43.10
2023-03-02T03:11:55.333Z,42.70
2023-03-02T03:14:30.674Z,44.40
2023-03-02T03:17:03.718Z,41.00
2023-03-02T03:19:37.483Z,44.30
2023-03-02T03:22:12.217Z,42.70
2023-03-02T03:24:48.167Z,44.40
2023-03-02T03:27:21.521Z,38.90
2023-03-02T03:29:55.753Z,44.50
2023-03-02T03:32:35.854Z,42.10
2023-03-02T03:35:11.855Z,34.20
2023-03-02T03:37:46.033Z,32.80
2023-03-02T03:40:34.524Z,32.50
2023-03-02T03:43:07.745Z,33.30
2023-03-02T03:45:51.681Z,29.90
2023-03-02T03:48:25.849Z,28.10
2023-03-02T03:50:59.567Z,35.80
2023-03-02T03:53:34.566Z,33.90
2023-03-02T03:56:08.775Z,36.80
2023-03-02T03:58:42.127Z,34.30
2023-03-02T04:01:15.150Z,34.80
2023-03-02T04:03:48.649Z,31.90
2023-03-02T04:06:24.756Z,31.30
2023-03-02T04:08:58.543Z,34.20
2023-03-02T04:11:31.727Z,41.70
2023-03-02T04:14:04.772Z,38.30
2023-03-02T04:16:38.129Z,36.90
2023-03-02T04:19:12.126Z,35.10
2023-03-02T04:21:49.387Z,37.00
2023-03-02T04:24:24.713Z,34.20
2023-03-02T04:27:01.316Z,37.20
2023-03-02T04:29:34.785Z,39.00
2023-03-02T04:32:09.929Z,38.10
2023-03-02T04:34:44.788Z,32.50
2023-03-02T04:37:18.207Z,37.10
2023-03-02T04:39:53.136Z,39.90
2023-03-02T04:42:27.428Z,35.80
2023-03-02T04:45:00.324Z,39.20
2023-03-02T04:47:33.374Z,32.20
2023-03-02T04:50:07.744Z,35.00
2023-03-02T04:52:46.598Z,36.50
2023-03-02T04:55:21.521Z,34.20
2023-03-02T04:57:54.272Z,38.90
2023-03-02T05:00:29.068Z,37.00
2023-03-02T05:03:01.669Z,40.30
2023-03-02T05:05:36.582Z,36.10
2023-03-02T05:08:09.586Z,38.70
2023-03-02T05:10:46.126Z,40.00
2023-03-02T05:13:19.903Z,41.50
2023-03-02T05:15:53.203Z,41.60
2023-03-02T05:18:26.936Z,39.90
2023-03-02T05:20:59.905Z,40.10
2023-03-02T05:23:32.861Z,38.10
2023-03-02T05:26:08.159Z,37.60
2023-03-02T05:28:43.066Z,36.80
2023-03-02T05:31:18.029Z,38.30
2023-03-02T05:33:51.359Z,38.20
2023-03-02T05:36:24.749Z,37.90
2023-03-02T05:38:57.454Z,40.40
2023-03-02T05:41:30.466Z,42.50
2023-03-02T05:44:03.147Z,39.60
2023-03-02T05:46:38.170Z,32.90
2023-03-02T05:49:10.925Z,38.50
2023-03-02T05:51:43.634Z,43.60
2023-03-02T05:54:16.840Z,37.70
2023-03-02T05:56:50.394Z,46.40
2023-03-02T05:59:23.245Z,33.30
2023-03-02T06:01:59.234Z,35.90
2023-03-02T06:04:32.576Z,39.00
2023-03-02T06:07:05.870Z,41.10
2023-03-02T06:09:40.613Z,33.50
2023-03-02T06:12:13.604Z,35.30
2023-03-02T06:14:49.695Z,32.40
2023-03-02T06:17:22.571Z,32.40
2023-03-02T06:19:55.480Z,29.80
2023-03-02T06:22:29.108Z,24.20
2023-03-02T06:25:02.067Z,32.20
2023-03-02T06:27:35.198Z,32.50
2023-03-02T06:30:10.879Z,24.30
2023-03-02T06:32:43.765Z,28.70
2023-03-02T06:35:16.809Z,27.80
2023-03-02T06:37:49.905Z,23.60
2023-03-02T06:40:23.501Z,21.80
2023-03-02T06:42:57.437Z,21.40
2023-03-02T06:45:34.170Z,20.60
2023-03-02T06:48:07.752Z,20.50
2023-03-02T06:50:41.079Z,28.40
2023-03-02T06:53:15.913Z,24.00
2023-03-02T06:55:51.483Z,20.80
2023-03-02T06:58:25.048Z,20.60
2023-03-02T07:00:58.343Z,17.50
2023-03-02T07:03:36.338Z,20.70
2023-03-02T07:06:09.414Z,20.10
2023-03-02T07:08:42.490Z,16.00
2023-03-02T07:11:15.384Z,18.20
2023-03-02T07:13:48.377Z,19.30
2023-03-02T07:16:21.204Z,12.80
2023-03-02T07:18:54.918Z,17.10
2023-03-02T07:21:28.045Z,15.80
2023-03-02T07:24:00.890Z,19.30
2023-03-02T07:26:34.104Z,13.30
2023-03-02T07:29:07.726Z,14.80
2023-03-02T07:31:41.024Z,11.30
2023-03-02T07:34:15.732Z,14.30
2023-03-02T07:36:49.378Z,14.80
2023-03-02T07:39:32.211Z,16.10
2023-03-02T07:42:07.383Z,15.90
2023-03-02T07:44:40.703Z,10.20
2023-03-02T07:47:13.838Z,13.10
2023-03-02T07:49:46.677Z,9.80
2023-03-02T07:52:19.393Z,8.70
2023-03-02T07:54:52.110Z,8.40
2023-03-02T07:57:24.855Z,10.00
2023-03-02T07:59:58.736Z,9.60
2023-03-02T08:02:33.808Z,9.40
2023-03-02T08:05:09.178Z,7.60
2023-03-02T08:07:43.220Z,10.50
2023-03-02T08:10:16.440Z,10.40
2023-03-02T08:12:49.270Z,11.80
2023-03-02T08:15:22.303Z,14.00
2023-03-02T08:17:55.359Z,10.10
2023-03-02T08:20:31.417Z,14.80
2023-03-02T08:23:08.304Z,11.60
2023-03-02T08:25:46.371Z,13.70
2023-03-02T08:28:19.655Z,13.60
2023-03-02T08:30:59.123Z,10.80
2023-03-02T08:33:32.201Z,10.10
2023-03-02T08:36:06.884Z,10.70
2023-03-02T08:38:39.682Z,8.50
2023-03-02T08:41:14.534Z,9.60
2023-03-02T08:43:47.208Z,10.10
2023-03-02T08:46:20.609Z,7.60
2023-03-02T08:48:53.738Z,11.70
2023-03-02T08:51:27.194Z,8.50
2023-03-02T08:54:01.037Z,6.40
2023-03-02T08:56:36.214Z,8.50
2023-03-02T08:59:11.076Z,6.30
2023-03-02T09:01:44.089Z,11.90
2023-03-02T09:04:18.117Z,6.00
2023-03-02T09:06:51.838Z,5.80
2023-03-02T09:09:24.536Z,6.20
2023-03-02T09:11:57.173Z,7.30
2023-03-02T09:14:30.334Z,6.00
2023-03-02T09:17:04.345Z,9.00
2023-03-02T09:19:44.252Z,6.90
2023-03-02T09:22:18.056Z,5.80
2023-03-02T09:24:51.322Z,5.40
2023-03-02T09:27:24.653Z,4.80
2023-03-02T09:29:57.370Z,6.80
2023-03-02T09:32:30.358Z,5.40
2023-03-02T09:35:03.538Z,9.40
2023-03-02T09:37:42.271Z,5.50
2023-03-02T09:40:29.089Z,6.80
2023-03-02T09:43:28.582Z,5.70
2023-03-02T09:46:07.839Z,11.20
2023-03-02T09:48:48.086Z,7.70
2023-03-02T09:51:32.478Z,6.50
2023-03-02T09:54:09.613Z,5.70
2023-03-02T09:56:44.202Z,5.10
2023-03-02T09:59:24.730Z,5.80
2023-03-02T10:02:02.702Z,7.50
2023-03-02T10:04:38.928Z,5.50
2023-03-02T10:07:16.637Z,6.90
2023-03-02T10:09:49.392Z,9.20
2023-03-02T10:12:42.170Z,8.80
2023-03-02T10:15:18.729Z,6.90
2023-03-02T10:18:04.535Z,5.30
2023-03-02T10:20:38.367Z,6.40
2023-03-02T10:23:21.234Z,9.90
2023-03-02T10:25:58.484Z,7.10
2023-03-02T10:28:34.324Z,10.00
2023-03-02T10:31:12.052Z,5.80
2023-03-02T10:33:45.138Z,7.10
2023-03-02T10:36:23.441Z,8.00
2023-03-02T10:38:57.160Z,8.40
2023-03-02T10:41:33.124Z,9.20
2023-03-02T10:44:08.380Z,7.20
2023-03-02T10:46:46.553Z,8.20
2023-03-02T10:49:31.248Z,6.10
2023-03-02T10:52:05.453Z,6.30
2023-03-02T10:54:38.424Z,6.70
2023-03-02T10:57:28.582Z,6.10
2023-03-02T11:00:06.010Z,6.70
2023-03-02T11:02:40.658Z,6.20
2023-03-02T11:05:28.875Z,8.70
2023-03-02T11:08:10.012Z,6.50
2023-03-02T11:10:52.099Z,5.70
2023-03-02T11:13:29.024Z,5.30
2023-03-02T11:16:02.400Z,5.10
2023-03-02T11:18:38.760Z,10.90
2023-03-02T11:21:16.352Z,5.40
2023-03-02T11:23:54.154Z,6.10
2023-03-02T11:26:28.028Z,8.50
2023-03-02T11:29:04.112Z,5.40
2023-03-02T11:31:42.793Z,4.80
2023-03-02T11:34:35.343Z,5.40
2023-03-02T11:37:17.437Z,5.20
2023-03-02T11:40:01.271Z,5.50
2023-03-02T11:42:35.553Z,8.50
2023-03-02T11:45:19.723Z,5.00
2023-03-02T11:48:02.610Z,4.80
2023-03-02T11:50:38.598Z,4.10
2023-03-02T11:53:15.828Z,5.40
2023-03-02T11:55:50.031Z,4.90
2023-03-02T11:58:25.165Z,5.40
2023-03-02T12:00:58.533Z,5.40
2023-03-02T12:03:42.818Z,6.70
2023-03-02T12:06:36.631Z,5.50
2023-03-02T12:09:31.390Z,9.60
2023-03-02T12:12:18.898Z,7.30
2023-03-02T12:14:56.891Z,5.20
2023-03-02T12:17:35.686Z,5.70
2023-03-02T12:20:23.980Z,5.60
2023-03-02T12:22:59.308Z,8.70
2023-03-02T12:25:40.647Z,8.90
2023-03-02T12:28:28.177Z,6.00
2023-03-02T12:31:05.968Z,5.10
2023-03-02T12:33:44.700Z,7.10
2023-03-02T12:36:20.317Z,7.70
2023-03-02T12:39:05.645Z,4.40
2023-03-02T12:41:48.764Z,6.80
2023-03-02T12:44:31.937Z,7.30
2023-03-02T12:47:04.910Z,6.10
2023-03-02T12:49:45.856Z,6.30
2023-03-02T12:52:32.291Z,5.30
2023-03-02T12:55:08.536Z,4.30
2023-03-02T12:57:50.525Z,6.50
2023-03-02T13:00:25.108Z,4.10
2023-03-02T13:03:00.300Z,5.90
2023-03-02T13:05:34.767Z,5.10
2023-03-02T13:08:13.537Z,5.00
2023-03-02T13:10:51.156Z,3.50
2023-03-02T13:13:27.171Z,6.90
2023-03-02T13:16:00.820Z,7.20
2023-03-02T13:18:34.896Z,6.50
2023-03-02T13:21:13.851Z,5.10
2023-03-02T13:23:51.920Z,12.10
2023-03-02T13:26:31.269Z,4.80
2023-03-02T13:29:06.076Z,4.90
2023-03-02T13:31:38.945Z,4.70
2023-03-02T13:34:23.487Z,5.00
2023-03-02T13:36:56.558Z,3.90
2023-03-02T13:39:32.117Z,5.80
2023-03-02T13:42:05.707Z,4.10
2023-03-02T13:44:39.415Z,6.00
2023-03-02T13:47:24.332Z,6.30
2023-03-02T13:50:07.310Z,3.70
2023-03-02T13:52:41.829Z,4.90
2023-03-02T13:55:18.109Z,4.10
2023-03-02T13:57:54.517Z,6.50
2023-03-02T14:00:30.537Z,5.00
2023-03-02T14:03:03.676Z,5.60
2023-03-02T14:05:39.487Z,5.90
2023-03-02T14:08:13.514Z,5.80
2023-03-02T14:10:46.318Z,4.60
2023-03-02T14:13:20.733Z,5.30
2023-03-02T14:15:54.671Z,8.20
2023-03-02T14:18:32.435Z,5.70
2023-03-02T14:21:05.761Z,6.00
2023-03-02T14:23:40.359Z,5.70
2023-03-02T14:26:31.442Z,6.80
2023-03-02T14:29:06.188Z,6.30
2023-03-02T14:31:40.944Z,5.70
2023-03-02T14:34:14.787Z,6.20
2023-03-02T14:36:49.715Z,4.50
2023-03-02T14:39:25.328Z,7.40
2023-03-02T14:41:58.580Z,5.10
2023-03-02T14:44:32.117Z,10.70
2023-03-02T14:47:05.344Z,5.10
2023-03-02T14:49:39.119Z,9.50
2023-03-02T14:52:17.606Z,7.70
2023-03-02T14:54:52.440Z,5.60
2023-03-02T14:57:26.867Z,6.50
2023-03-02T15:00:00.753Z,8.70
2023-03-02T15:02:34.949Z,6.80
2023-03-02T15:05:18.817Z,7.00
2023-03-02T15:07:58.775Z,12.20
2023-03-02T15:10:31.981Z,7.50
2023-03-02T15:13:05.462Z,17.20
2023-03-02T15:15:43.659Z,9.20
2023-03-02T15:18:20.173Z,8.40
2023-03-02T15:20:56.127Z,11.30
2023-03-02T15:23:29.192Z,8.00
2023-03-02T15:26:03.313Z,8.30
2023-03-02T15:28:38.105Z,12.50
2023-03-02T15:31:12.233Z,9.20
2023-03-02T15:33:46.548Z,12.30
2023-03-02T15:36:23.565Z,12.70
2023-03-02T15:38:56.526Z,12.90
2023-03-02T15:41:29.810Z,13.20
2023-03-02T15:44:02.726Z,15.60
2023-03-02T15:46:36.204Z,9.80
2023-03-02T15:49:12.955Z,8.90
2023-03-02T15:51:45.696Z,6.80
2023-03-02T15:54:22.655Z,12.00
2023-03-02T15:56:57.176Z,7.80
2023-03-02T15:59:30.877Z,8.90
2023-03-02T16:02:05.507Z,12.20
2023-03-02T16:04:38.761Z,10.70
2023-03-02T16:07:11.661Z,17.00
2023-03-02T16:09:45.627Z,10.00
2023-03-02T16:12:23.665Z,11.80
2023-03-02T16:14:56.988Z,16.40
2023-03-02T16:17:33.048Z,12.10
2023-03-02T16:20:06.833Z,14.40
2023-03-02T16:22:40.411Z,14.30
2023-03-02T16:25:13.514Z,19.70
2023-03-02T16:27:48.439Z,19.10
2023-03-02T16:30:23.800Z,16.60
2023-03-02T16:33:01.085Z,12.30
2023-03-02T16:35:34.962Z,13.50
2023-03-02T16:38:09.594Z,10.20
2023-03-02T16:40:42.729Z,16.30
2023-03-02T16:43:25.237Z,9.90
2023-03-02T16:45:58.054Z,11.10
2023-03-02T16:48:32.515Z,32.10
2023-03-02T16:51:12.370Z,69.50
2023-03-02T16:53:45.702Z,31.40
2023-03-02T16:56:19.066Z,27.70
2023-03-02T16:58:52.185Z,43.60
2023-03-02T17:01:25.431Z,35.20
2023-03-02T17:03:58.157Z,32.00
2023-03-02T17:06:32.113Z,28.40
2023-03-02T17:09:05.772Z,35.40
2023-03-02T17:11:44.566Z,41.10
2023-03-02T17:14:18.042Z,35.00
2023-03-02T17:16:50.886Z,34.20
2023-03-02T17:19:26.967Z,35.90
2023-03-02T17:22:00.886Z,31.30
2023-03-02T17:24:41.713Z,27.80
2023-03-02T17:27:24.592Z,28.00
2023-03-02T17:29:59.584Z,29.10
2023-03-02T17:32:36.573Z,23.60
2023-03-02T17:35:13.919Z,29.40
2023-03-02T17:37:49.486Z,41.60
2023-03-02T17:40:24.277Z,66.00
2023-03-02T17:42:57.895Z,38.20
2023-03-02T17:45:31.329Z,24.90
2023-03-02T17:48:04.573Z,23.00
2023-03-02T17:50:37.905Z,30.90
2023-03-02T17:53:10.653Z,28.80
2023-03-02T17:55:43.994Z,22.70
2023-03-02T17:58:19.044Z,18.80
2023-03-02T18:00:53.943Z,24.80
2023-03-02T18:03:28.188Z,21.40
2023-03-02T18:06:01.110Z,16.90
2023-03-02T18:08:34.358Z,18.00
2023-03-02T18:11:07.536Z,27.00
2023-03-02T18:13:40.438Z,18.70
2023-03-02T18:16:13.952Z,15.50
2023-03-02T18:18:47.304Z,14.20
2023-03-02T18:21:20.093Z,12.50
2023-03-02T18:23:53.191Z,14.50
2023-03-02T18:26:27.073Z,22.20
2023-03-02T18:29:00.121Z,14.00
2023-03-02T18:31:34.401Z,13.70
2023-03-02T18:34:10.007Z,12.20
2023-03-02T18:36:43.364Z,11.40
2023-03-02T18:39:16.995Z,12.40
2023-03-02T18:41:50.436Z,20.50
2023-03-02T18:44:28.199Z,20.90
2023-03-02T18:47:02.860Z,13.70
2023-03-02T18:49:35.750Z,15.00
2023-03-02T18:52:10.246Z,27.00
2023-03-02T18:54:43.981Z,21.90
2023-03-02T18:57:18.313Z,20.80
2023-03-02T18:59:51.265Z,36.00
2023-03-02T19:02:24.310Z,25.10
2023-03-02T19:04:57.012Z,23.00
2023-03-02T19:07:31.642Z,33.70
2023-03-02T19:10:05.080Z,29.10
2023-03-02T19:12:38.941Z,22.90
2023-03-02T19:15:13.978Z,23.90
2023-03-02T19:17:47.613Z,25.90
2023-03-02T19:20:23.884Z,22.20
2023-03-02T19:22:57.203Z,22.70
2023-03-02T19:25:29.959Z,26.30
2023-03-02T19:28:03.065Z,20.40
2023-03-02T19:30:41.344Z,25.70
2023-03-02T19:33:15.810Z,28.70
2023-03-02T19:35:48.697Z,24.70
2023-03-02T19:38:23.281Z,21.00
2023-03-02T19:40:57.076Z,27.80
2023-03-02T19:43:29.934Z,20.40
2023-03-02T19:46:02.940Z,30.50
2023-03-02T19:48:38.287Z,27.90
2023-03-02T19:51:12.781Z,27.50
2023-03-02T19:53:47.332Z,30.70
2023-03-02T19:56:21.054Z,28.00
2023-03-02T19:58:55.047Z,33.30
2023-03-02T20:01:30.262Z,29.80
2023-03-02T20:04:07.215Z,33.40
2023-03-02T20:06:40.559Z,32.30
2023-03-02T20:09:19.690Z,35.80
2023-03-02T20:11:54.140Z,38.10
2023-03-02T20:14:33.740Z,32.10
2023-03-02T20:17:07.236Z,27.20
2023-03-02T20:19:40.599Z,25.80
2023-03-02T20:22:13.791Z,23.20
2023-03-02T20:24:49.439Z,31.70
2023-03-02T20:27:22.618Z,33.40
2023-03-02T20:29:55.670Z,33.30
2023-03-02T20:32:28.920Z,32.40
2023-03-02T20:35:02.736Z,34.90
2023-03-02T20:37:36.475Z,32.70
2023-03-02T20:40:10.419Z,26.70
2023-03-02T20:42:46.126Z,26.10
2023-03-02T20:45:19.304Z,30.80
2023-03-02T20:47:52.529Z,31.10
2023-03-02T20:50:27.583Z,28.20
2023-03-02T20:53:00.836Z,30.70
2023-03-02T20:55:34.593Z,31.80
2023-03-02T20:58:07.395Z,30.40
2023-03-02T21:00:45.597Z,24.60
2023-03-02T21:03:19.039Z,31.00
2023-03-02T21:05:52.046Z,30.10
2023-03-02T21:08:24.958Z,30.20
2023-03-02T21:10:58.981Z,25.80
2023-03-02T21:13:32.546Z,25.30
2023-03-02T21:16:07.887Z,20.30
2023-03-02T21:18:45.853Z,23.70
2023-03-02T21:21:32.485Z,25.20
2023-03-02T21:24:12.612Z,24.70
2023-03-02T21:26:45.710Z,25.40
2023-03-02T21:29:18.469Z,20.00
2023-03-02T21:31:52.409Z,23.40
2023-03-02T21:34:26.964Z,25.70
2023-03-02T21:37:01.894Z,27.50
2023-03-02T21:39:34.913Z,27.20
2023-03-02T21:42:17.948Z,23.20
2023-03-02T21:44:50.970Z,22.00
2023-03-02T21:47:23.913Z,22.40
2023-03-02T21:49:56.980Z,23.50
2023-03-02T21:52:29.942Z,27.30
2023-03-02T21:55:02.859Z,27.90
2023-03-02T21:57:40.323Z,27.70
2023-03-02T22:00:19.947Z,26.20
2023-03-02T22:02:53.068Z,25.60
2023-03-02T22:05:27.254Z,27.10
2023-03-02T22:08:00.298Z,29.50
2023-03-02T22:10:35.494Z,30.70
2023-03-02T22:13:20.980Z,27.50
2023-03-02T22:15:59.305Z,23.90
2023-03-02T22:18:32.227Z,23.90
2023-03-02T22:21:08.417Z,25.40
2023-03-02T22:23:41.567Z,30.90
2023-03-02T22:26:17.255Z,24.20
2023-03-02T22:28:50.165Z,28.50
2023-03-02T22:31:23.608Z,25.10
2023-03-02T22:33:57.694Z,31.00
2023-03-02T22:36:30.433Z,24.00
2023-03-02T22:39:03.332Z,31.50
2023-03-02T22:41:36.346Z,30.10
2023-03-02T22:44:13.508Z,27.40
2023-03-02T22:46:48.052Z,22.40
2023-03-02T22:49:21.210Z,30.80
2023-03-02T22:51:55.532Z,30.10
2023-03-02T22:54:32.518Z,23.80
2023-03-02T22:57:07.363Z,26.80
2023-03-02T22:59:41.380Z,22.30
2023-03-02T23:02:18.914Z,36.20
2023-03-02T23:04:51.893Z,33.80
2023-03-02T23:07:25.213Z,35.90
2023-03-02T23:09:58.130Z,33.40
2023-03-02T23:12:30.977Z,28.50
2023-03-02T23:15:18.728Z,32.40
2023-03-02T23:17:51.914Z,33.80
2023-03-02T23:20:25.170Z,27.00
2023-03-02T23:22:58.256Z,29.60
2023-03-02T23:25:31.250Z,29.60
2023-03-02T23:28:04.076Z,26.40
2023-03-02T23:30:40.082Z,24.70
2023-03-02T23:33:13.772Z,29.80
2023-03-02T23:35:46.582Z,23.20
2023-03-02T23:38:19.595Z,26.00
2023-03-02T23:40:52.595Z,28.40
2023-03-02T23:43:26.970Z,25.60
2023-03-02T23:45:59.681Z,37.30
2023-03-02T23:48:34.242Z,27.70
2023-03-02T23:51:08.518Z,26.70
2023-03-02T23:53:47.467Z,29.40
2023-03-02T23:56:20.353Z,29.70
2023-03-02T23:58:53.200Z,29.00
